sensor_id;sensor_type;location;lat;lon;timestamp;P1;durP1;ratioP1;P2;durP2;ratioP2
4756;SDS011;2392;52.578;13.426;2022-11-22T00:00:16;17.20;;;11.77;;
4756;SDS011;2392;52.578;13.426;2022-11-22T00:02:45;16.53;;;11.87;;
4756;SDS011;2392;52.578;13.426;2022-11-22T00:05:13;17.77;;;12.70;;
4756;SDS011;2392;52.578;13.426;2022-11-22T00:07:40;18.33;;;11.53;;
4756;SDS011;2392;52.578;13.426;2022-11-22T00:10:07;19.60;;;12.17;;
4756;SDS011;2392;52.578;13.426;2022-11-22T00:12:36;19.30;;;11.93;;
4756;SDS011;2392;52.578;13.426;2022-11-22T00:15:05;18.70;;;12.10;;
4756;SDS011;2392;52.578;13.426;2022-11-22T00:17:33;20.70;;;13.60;;
4756;SDS011;2392;52.578;13.426;2022-11-22T00:20:02;18.20;;;12.80;;
4756;SDS011;2392;52.578;13.426;2022-11-22T00:22:30;20.80;;;13.27;;
4756;SDS011;2392;52.578;13.426;2022-11-22T00:24:58;18.00;;;12.17;;
4756;SDS011;2392;52.578;13.426;2022-11-22T00:27:25;22.20;;;13.63;;
4756;SDS011;2392;52.578;13.426;2022-11-22T00:29:52;17.70;;;12.10;;
4756;SDS011;2392;52.578;13.426;2022-11-22T00:32:19;19.70;;;13.37;;
4756;SDS011;2392;52.578;13.426;2022-11-22T00:34:46;20.07;;;13.43;;
4756;SDS011;2392;52.578;13.426;2022-11-22T00:37:14;20.20;;;14.50;;
4756;SDS011;2392;52.578;13.426;2022-11-22T00:39:41;15.93;;;11.47;;
4756;SDS011;2392;52.578;13.426;2022-11-22T00:42:08;18.70;;;13.67;;
4756;SDS011;2392;52.578;13.426;2022-11-22T00:44:35;17.57;;;13.60;;
4756;SDS011;2392;52.578;13.426;2022-11-22T00:47:02;16.67;;;12.30;;
4756;SDS011;2392;52.578;13.426;2022-11-22T00:49:29;20.23;;;13.60;;
4756;SDS011;2392;52.578;13.426;2022-11-22T00:51:56;19.93;;;13.40;;
4756;SDS011;2392;52.578;13.426;2022-11-22T00:54:25;19.97;;;12.70;;
4756;SDS011;2392;52.578;13.426;2022-11-22T00:56:51;22.43;;;13.30;;
4756;SDS011;2392;52.578;13.426;2022-11-22T00:59:18;20.90;;;13.83;;
4756;SDS011;2392;52.578;13.426;2022-11-22T01:01:45;19.67;;;13.57;;
4756;SDS011;2392;52.578;13.426;2022-11-22T01:04:12;23.67;;;13.87;;
4756;SDS011;2392;52.578;13.426;2022-11-22T01:06:39;17.70;;;12.80;;
4756;SDS011;2392;52.578;13.426;2022-11-22T01:09:06;24.27;;;14.43;;
4756;SDS011;2392;52.578;13.426;2022-11-22T01:11:34;23.03;;;14.23;;
4756;SDS011;2392;52.578;13.426;2022-11-22T01:14:01;20.00;;;13.87;;
4756;SDS011;2392;52.578;13.426;2022-11-22T01:16:28;25.80;;;12.97;;
4756;SDS011;2392;52.578;13.426;2022-11-22T01:18:55;18.50;;;12.90;;
4756;SDS011;2392;52.578;13.426;2022-11-22T01:21:22;22.60;;;13.77;;
4756;SDS011;2392;52.578;13.426;2022-11-22T01:23:49;20.47;;;12.93;;
4756;SDS011;2392;52.578;13.426;2022-11-22T01:26:16;19.93;;;13.67;;
4756;SDS011;2392;52.578;13.426;2022-11-22T01:28:45;23.53;;;13.80;;
4756;SDS011;2392;52.578;13.426;2022-11-22T01:31:12;21.27;;;12.80;;
4756;SDS011;2392;52.578;13.426;2022-11-22T01:33:39;20.63;;;14.00;;
4756;SDS011;2392;52.578;13.426;2022-11-22T01:36:06;20.00;;;13.03;;
4756;SDS011;2392;52.578;13.426;2022-11-22T01:38:33;20.60;;;12.67;;
4756;SDS011;2392;52.578;13.426;2022-11-22T01:41:00;16.50;;;12.30;;
4756;SDS011;2392;52.578;13.426;2022-11-22T01:43:27;20.23;;;13.17;;
4756;SDS011;2392;52.578;13.426;2022-11-22T01:45:56;18.00;;;12.67;;
4756;SDS011;2392;52.578;13.426;2022-11-22T01:48:35;20.73;;;12.90;;
4756;SDS011;2392;52.578;13.426;2022-11-22T01:51:09;16.77;;;11.43;;
4756;SDS011;2392;52.578;13.426;2022-11-22T01:53:43;21.00;;;14.03;;
4756;SDS011;2392;52.578;13.426;2022-11-22T01:56:12;22.03;;;13.07;;
4756;SDS011;2392;52.578;13.426;2022-11-22T01:58:42;21.07;;;14.40;;
4756;SDS011;2392;52.578;13.426;2022-11-22T02:01:11;22.87;;;12.83;;
4756;SDS011;2392;52.578;13.426;2022-11-22T02:03:39;21.90;;;13.60;;
4756;SDS011;2392;52.578;13.426;2022-11-22T02:06:10;23.10;;;14.20;;
4756;SDS011;2392;52.578;13.426;2022-11-22T02:08:39;22.47;;;14.33;;
4756;SDS011;2392;52.578;13.426;2022-11-22T02:11:10;20.33;;;14.30;;
4756;SDS011;2392;52.578;13.426;2022-11-22T02:13:39;19.73;;;13.67;;
4756;SDS011;2392;52.578;13.426;2022-11-22T02:16:09;21.70;;;13.63;;
4756;SDS011;2392;52.578;13.426;2022-11-22T02:18:38;22.47;;;14.87;;
4756;SDS011;2392;52.578;13.426;2022-11-22T02:21:05;20.07;;;13.60;;
4756;SDS011;2392;52.578;13.426;2022-11-22T02:23:36;22.30;;;14.80;;
4756;SDS011;2392;52.578;13.426;2022-11-22T02:26:17;20.17;;;13.20;;
4756;SDS011;2392;52.578;13.426;2022-11-22T02:28:44;22.37;;;14.07;;
4756;SDS011;2392;52.578;13.426;2022-11-22T02:33:59;20.07;;;13.63;;
4756;SDS011;2392;52.578;13.426;2022-11-22T02:36:26;23.10;;;14.13;;
4756;SDS011;2392;52.578;13.426;2022-11-22T02:38:53;19.70;;;13.37;;
4756;SDS011;2392;52.578;13.426;2022-11-22T02:41:23;22.03;;;13.93;;
4756;SDS011;2392;52.578;13.426;2022-11-22T02:43:50;19.10;;;12.70;;
4756;SDS011;2392;52.578;13.426;2022-11-22T02:46:17;18.83;;;12.73;;
4756;SDS011;2392;52.578;13.426;2022-11-22T02:48:47;18.87;;;12.50;;
4756;SDS011;2392;52.578;13.426;2022-11-22T02:51:15;23.73;;;13.33;;
4756;SDS011;2392;52.578;13.426;2022-11-22T02:53:44;17.80;;;13.17;;
4756;SDS011;2392;52.578;13.426;2022-11-22T02:56:12;17.97;;;12.70;;
4756;SDS011;2392;52.578;13.426;2022-11-22T02:58:41;25.67;;;14.80;;
4756;SDS011;2392;52.578;13.426;2022-11-22T03:01:08;22.13;;;12.47;;
4756;SDS011;2392;52.578;13.426;2022-11-22T03:03:36;19.73;;;12.87;;
4756;SDS011;2392;52.578;13.426;2022-11-22T03:06:03;19.17;;;12.37;;
4756;SDS011;2392;52.578;13.426;2022-11-22T03:08:30;17.80;;;12.63;;
4756;SDS011;2392;52.578;13.426;2022-11-22T03:10:57;22.17;;;14.33;;
4756;SDS011;2392;52.578;13.426;2022-11-22T03:13:24;17.87;;;12.03;;
4756;SDS011;2392;52.578;13.426;2022-11-22T03:15:53;18.93;;;11.90;;
4756;SDS011;2392;52.578;13.426;2022-11-22T03:18:20;17.77;;;12.07;;
4756;SDS011;2392;52.578;13.426;2022-11-22T03:20:47;19.37;;;13.53;;
4756;SDS011;2392;52.578;13.426;2022-11-22T03:23:14;18.43;;;13.13;;
4756;SDS011;2392;52.578;13.426;2022-11-22T03:25:41;19.20;;;11.90;;
4756;SDS011;2392;52.578;13.426;2022-11-22T03:28:08;20.10;;;13.80;;
4756;SDS011;2392;52.578;13.426;2022-11-22T03:30:38;19.50;;;12.40;;
4756;SDS011;2392;52.578;13.426;2022-11-22T03:33:07;22.23;;;14.33;;
4756;SDS011;2392;52.578;13.426;2022-11-22T03:35:34;21.53;;;13.67;;
4756;SDS011;2392;52.578;13.426;2022-11-22T03:38:01;20.20;;;12.30;;
4756;SDS011;2392;52.578;13.426;2022-11-22T03:40:28;21.40;;;13.93;;
4756;SDS011;2392;52.578;13.426;2022-11-22T03:42:57;20.73;;;11.80;;
4756;SDS011;2392;52.578;13.426;2022-11-22T03:45:25;21.00;;;12.80;;
4756;SDS011;2392;52.578;13.426;2022-11-22T03:47:52;22.43;;;14.33;;
4756;SDS011;2392;52.578;13.426;2022-11-22T03:50:21;18.70;;;12.17;;
4756;SDS011;2392;52.578;13.426;2022-11-22T03:52:49;21.30;;;13.37;;
4756;SDS011;2392;52.578;13.426;2022-11-22T03:55:16;21.83;;;13.37;;
4756;SDS011;2392;52.578;13.426;2022-11-22T03:57:43;21.27;;;13.90;;
4756;SDS011;2392;52.578;13.426;2022-11-22T04:00:10;22.07;;;14.60;;
4756;SDS011;2392;52.578;13.426;2022-11-22T04:02:38;20.50;;;12.87;;
4756;SDS011;2392;52.578;13.426;2022-11-22T04:05:05;19.40;;;12.53;;
4756;SDS011;2392;52.578;13.426;2022-11-22T04:07:34;23.30;;;13.93;;
4756;SDS011;2392;52.578;13.426;2022-11-22T04:10:01;20.57;;;13.23;;
4756;SDS011;2392;52.578;13.426;2022-11-22T04:12:28;18.30;;;12.37;;
4756;SDS011;2392;52.578;13.426;2022-11-22T04:14:55;20.63;;;12.47;;
4756;SDS011;2392;52.578;13.426;2022-11-22T04:17:33;21.90;;;13.20;;
4756;SDS011;2392;52.578;13.426;2022-11-22T04:20:10;19.40;;;13.33;;
4756;SDS011;2392;52.578;13.426;2022-11-22T04:22:59;20.37;;;13.70;;
4756;SDS011;2392;52.578;13.426;2022-11-22T04:25:28;20.70;;;13.90;;
4756;SDS011;2392;52.578;13.426;2022-11-22T04:27:56;21.70;;;13.70;;
4756;SDS011;2392;52.578;13.426;2022-11-22T04:30:24;25.20;;;14.20;;
4756;SDS011;2392;52.578;13.426;2022-11-22T04:33:13;20.90;;;12.63;;
4756;SDS011;2392;52.578;13.426;2022-11-22T04:35:40;21.57;;;12.53;;
4756;SDS011;2392;52.578;13.426;2022-11-22T04:38:09;22.23;;;14.27;;
4756;SDS011;2392;52.578;13.426;2022-11-22T04:40:37;27.17;;;15.60;;
4756;SDS011;2392;52.578;13.426;2022-11-22T04:43:05;20.23;;;13.47;;
4756;SDS011;2392;52.578;13.426;2022-11-22T04:45:50;25.27;;;13.70;;
4756;SDS011;2392;52.578;13.426;2022-11-22T04:48:17;22.57;;;14.20;;
4756;SDS011;2392;52.578;13.426;2022-11-22T04:50:44;23.57;;;14.73;;
4756;SDS011;2392;52.578;13.426;2022-11-22T04:53:30;26.23;;;15.80;;
4756;SDS011;2392;52.578;13.426;2022-11-22T04:55:57;23.60;;;15.60;;
4756;SDS011;2392;52.578;13.426;2022-11-22T04:58:24;24.30;;;14.83;;
4756;SDS011;2392;52.578;13.426;2022-11-22T05:00:51;22.80;;;15.37;;
4756;SDS011;2392;52.578;13.426;2022-11-22T05:03:18;28.10;;;15.07;;
4756;SDS011;2392;52.578;13.426;2022-11-22T05:05:45;27.37;;;15.30;;
4756;SDS011;2392;52.578;13.426;2022-11-22T05:08:12;27.47;;;16.20;;
4756;SDS011;2392;52.578;13.426;2022-11-22T05:10:41;27.27;;;15.63;;
4756;SDS011;2392;52.578;13.426;2022-11-22T05:13:24;25.80;;;16.07;;
4756;SDS011;2392;52.578;13.426;2022-11-22T05:15:52;25.53;;;15.70;;
4756;SDS011;2392;52.578;13.426;2022-11-22T05:18:20;25.13;;;14.83;;
4756;SDS011;2392;52.578;13.426;2022-11-22T05:20:47;27.13;;;14.97;;
4756;SDS011;2392;52.578;13.426;2022-11-22T05:23:15;25.00;;;15.23;;
4756;SDS011;2392;52.578;13.426;2022-11-22T05:26:01;31.97;;;14.77;;
4756;SDS011;2392;52.578;13.426;2022-11-22T05:28:28;27.33;;;15.07;;
4756;SDS011;2392;52.578;13.426;2022-11-22T05:30:56;29.57;;;16.63;;
4756;SDS011;2392;52.578;13.426;2022-11-22T05:33:23;26.73;;;16.00;;
4756;SDS011;2392;52.578;13.426;2022-11-22T05:35:50;31.17;;;16.53;;
4756;SDS011;2392;52.578;13.426;2022-11-22T05:38:17;27.40;;;15.90;;
4756;SDS011;2392;52.578;13.426;2022-11-22T05:40:44;29.83;;;16.60;;
4756;SDS011;2392;52.578;13.426;2022-11-22T05:43:12;28.60;;;17.80;;
4756;SDS011;2392;52.578;13.426;2022-11-22T05:45:39;29.40;;;17.80;;
4756;SDS011;2392;52.578;13.426;2022-11-22T05:48:06;30.67;;;17.80;;
4756;SDS011;2392;52.578;13.426;2022-11-22T05:50:33;26.00;;;15.80;;
4756;SDS011;2392;52.578;13.426;2022-11-22T05:53:00;25.13;;;15.23;;
4756;SDS011;2392;52.578;13.426;2022-11-22T05:55:28;27.70;;;15.73;;
4756;SDS011;2392;52.578;13.426;2022-11-22T05:57:58;27.87;;;17.47;;
4756;SDS011;2392;52.578;13.426;2022-11-22T06:00:26;29.37;;;16.47;;
4756;SDS011;2392;52.578;13.426;2022-11-22T06:02:58;26.80;;;16.10;;
4756;SDS011;2392;52.578;13.426;2022-11-22T06:05:25;29.77;;;16.40;;
4756;SDS011;2392;52.578;13.426;2022-11-22T06:07:52;28.63;;;15.87;;
4756;SDS011;2392;52.578;13.426;2022-11-22T06:10:22;32.03;;;17.03;;
4756;SDS011;2392;52.578;13.426;2022-11-22T06:12:48;28.50;;;16.00;;
4756;SDS011;2392;52.578;13.426;2022-11-22T06:15:15;30.10;;;17.27;;
4756;SDS011;2392;52.578;13.426;2022-11-22T06:17:44;29.70;;;17.10;;
4756;SDS011;2392;52.578;13.426;2022-11-22T06:20:11;28.10;;;16.93;;
4756;SDS011;2392;52.578;13.426;2022-11-22T06:22:38;27.63;;;16.43;;
4756;SDS011;2392;52.578;13.426;2022-11-22T06:25:05;32.83;;;17.37;;
4756;SDS011;2392;52.578;13.426;2022-11-22T06:27:33;29.50;;;16.80;;
4756;SDS011;2392;52.578;13.426;2022-11-22T06:30:00;32.67;;;17.00;;
4756;SDS011;2392;52.578;13.426;2022-11-22T06:32:27;28.10;;;17.83;;
4756;SDS011;2392;52.578;13.426;2022-11-22T06:34:58;30.37;;;17.73;;
4756;SDS011;2392;52.578;13.426;2022-11-22T06:37:26;26.50;;;16.90;;
4756;SDS011;2392;52.578;13.426;2022-11-22T06:39:53;33.97;;;17.70;;
4756;SDS011;2392;52.578;13.426;2022-11-22T06:42:20;25.17;;;16.93;;
4756;SDS011;2392;52.578;13.426;2022-11-22T06:44:47;31.70;;;16.77;;
4756;SDS011;2392;52.578;13.426;2022-11-22T06:47:14;28.97;;;16.77;;
4756;SDS011;2392;52.578;13.426;2022-11-22T06:49:41;30.47;;;17.27;;
4756;SDS011;2392;52.578;13.426;2022-11-22T06:52:10;27.00;;;16.97;;
4756;SDS011;2392;52.578;13.426;2022-11-22T06:54:37;29.00;;;16.63;;
4756;SDS011;2392;52.578;13.426;2022-11-22T06:57:04;27.73;;;17.13;;
4756;SDS011;2392;52.578;13.426;2022-11-22T06:59:31;24.80;;;14.80;;
4756;SDS011;2392;52.578;13.426;2022-11-22T07:01:58;26.47;;;15.87;;
4756;SDS011;2392;52.578;13.426;2022-11-22T07:04:25;28.40;;;16.70;;
4756;SDS011;2392;52.578;13.426;2022-11-22T07:06:52;31.57;;;17.03;;
4756;SDS011;2392;52.578;13.426;2022-11-22T07:09:20;34.70;;;17.93;;
4756;SDS011;2392;52.578;13.426;2022-11-22T07:11:47;27.53;;;16.33;;
4756;SDS011;2392;52.578;13.426;2022-11-22T07:14:14;27.27;;;15.07;;
4756;SDS011;2392;52.578;13.426;2022-11-22T07:16:41;28.30;;;16.60;;
4756;SDS011;2392;52.578;13.426;2022-11-22T07:19:08;29.40;;;16.43;;
4756;SDS011;2392;52.578;13.426;2022-11-22T07:21:35;30.00;;;17.53;;
4756;SDS011;2392;52.578;13.426;2022-11-22T07:24:03;28.97;;;16.50;;
4756;SDS011;2392;52.578;13.426;2022-11-22T07:26:32;29.80;;;17.40;;
4756;SDS011;2392;52.578;13.426;2022-11-22T07:28:59;31.60;;;16.57;;
4756;SDS011;2392;52.578;13.426;2022-11-22T07:31:26;30.53;;;16.87;;
4756;SDS011;2392;52.578;13.426;2022-11-22T07:33:54;29.97;;;17.40;;
4756;SDS011;2392;52.578;13.426;2022-11-22T07:36:22;26.40;;;15.77;;
4756;SDS011;2392;52.578;13.426;2022-11-22T07:38:49;34.80;;;15.77;;
4756;SDS011;2392;52.578;13.426;2022-11-22T07:41:17;28.53;;;16.30;;
4756;SDS011;2392;52.578;13.426;2022-11-22T07:43:45;29.07;;;16.63;;
4756;SDS011;2392;52.578;13.426;2022-11-22T07:46:15;28.57;;;16.80;;
4756;SDS011;2392;52.578;13.426;2022-11-22T07:48:46;29.10;;;17.33;;
4756;SDS011;2392;52.578;13.426;2022-11-22T07:51:14;27.63;;;16.03;;
4756;SDS011;2392;52.578;13.426;2022-11-22T07:53:41;30.77;;;16.50;;
4756;SDS011;2392;52.578;13.426;2022-11-22T07:56:08;29.17;;;18.13;;
4756;SDS011;2392;52.578;13.426;2022-11-22T07:58:35;33.63;;;18.10;;
4756;SDS011;2392;52.578;13.426;2022-11-22T08:01:04;30.23;;;16.40;;
4756;SDS011;2392;52.578;13.426;2022-11-22T08:03:33;27.83;;;17.70;;
4756;SDS011;2392;52.578;13.426;2022-11-22T08:06:00;29.20;;;18.00;;
4756;SDS011;2392;52.578;13.426;2022-11-22T08:08:28;29.43;;;17.90;;
4756;SDS011;2392;52.578;13.426;2022-11-22T08:10:55;27.53;;;16.60;;
4756;SDS011;2392;52.578;13.426;2022-11-22T08:13:22;29.33;;;16.73;;
4756;SDS011;2392;52.578;13.426;2022-11-22T08:15:49;30.37;;;18.40;;
4756;SDS011;2392;52.578;13.426;2022-11-22T08:18:17;29.40;;;17.50;;
4756;SDS011;2392;52.578;13.426;2022-11-22T08:20:44;33.23;;;17.67;;
4756;SDS011;2392;52.578;13.426;2022-11-22T08:23:11;29.33;;;17.23;;
4756;SDS011;2392;52.578;13.426;2022-11-22T08:25:38;30.90;;;16.70;;
4756;SDS011;2392;52.578;13.426;2022-11-22T08:28:05;30.40;;;17.13;;
4756;SDS011;2392;52.578;13.426;2022-11-22T08:30:32;31.80;;;17.90;;
4756;SDS011;2392;52.578;13.426;2022-11-22T08:32:59;25.37;;;16.77;;
4756;SDS011;2392;52.578;13.426;2022-11-22T08:35:28;27.67;;;16.80;;
4756;SDS011;2392;52.578;13.426;2022-11-22T08:37:55;30.63;;;17.87;;
4756;SDS011;2392;52.578;13.426;2022-11-22T08:40:22;27.23;;;16.90;;
4756;SDS011;2392;52.578;13.426;2022-11-22T08:42:52;31.47;;;18.23;;
4756;SDS011;2392;52.578;13.426;2022-11-22T08:45:19;33.80;;;17.47;;
4756;SDS011;2392;52.578;13.426;2022-11-22T08:47:46;29.97;;;18.07;;
4756;SDS011;2392;52.578;13.426;2022-11-22T08:50:14;29.47;;;17.73;;
4756;SDS011;2392;52.578;13.426;2022-11-22T08:52:43;33.37;;;18.67;;
4756;SDS011;2392;52.578;13.426;2022-11-22T08:55:10;35.27;;;18.67;;
4756;SDS011;2392;52.578;13.426;2022-11-22T08:57:37;33.57;;;17.20;;
4756;SDS011;2392;52.578;13.426;2022-11-22T09:00:04;36.50;;;18.50;;
4756;SDS011;2392;52.578;13.426;2022-11-22T09:02:33;30.03;;;17.03;;
4756;SDS011;2392;52.578;13.426;2022-11-22T09:05:00;32.80;;;18.30;;
4756;SDS011;2392;52.578;13.426;2022-11-22T09:07:27;37.40;;;21.30;;
4756;SDS011;2392;52.578;13.426;2022-11-22T09:09:55;39.00;;;19.60;;
4756;SDS011;2392;52.578;13.426;2022-11-22T09:12:22;35.13;;;19.00;;
4756;SDS011;2392;52.578;13.426;2022-11-22T09:14:49;34.37;;;19.47;;
4756;SDS011;2392;52.578;13.426;2022-11-22T09:17:16;30.30;;;18.03;;
4756;SDS011;2392;52.578;13.426;2022-11-22T09:19:43;33.07;;;19.30;;
4756;SDS011;2392;52.578;13.426;2022-11-22T09:22:10;37.77;;;19.83;;
4756;SDS011;2392;52.578;13.426;2022-11-22T09:24:37;38.47;;;18.40;;
4756;SDS011;2392;52.578;13.426;2022-11-22T09:27:06;33.83;;;18.90;;
4756;SDS011;2392;52.578;13.426;2022-11-22T09:29:33;38.57;;;20.30;;
4756;SDS011;2392;52.578;13.426;2022-11-22T09:32:00;33.27;;;19.37;;
4756;SDS011;2392;52.578;13.426;2022-11-22T09:34:27;38.23;;;19.17;;
4756;SDS011;2392;52.578;13.426;2022-11-22T09:36:54;42.07;;;21.57;;
4756;SDS011;2392;52.578;13.426;2022-11-22T09:39:21;42.17;;;20.50;;
4756;SDS011;2392;52.578;13.426;2022-11-22T09:45:03;37.10;;;18.90;;
4756;SDS011;2392;52.578;13.426;2022-11-22T09:47:43;39.63;;;21.20;;
4756;SDS011;2392;52.578;13.426;2022-11-22T09:50:17;43.50;;;22.33;;
4756;SDS011;2392;52.578;13.426;2022-11-22T09:52:52;47.03;;;22.97;;
4756;SDS011;2392;52.578;13.426;2022-11-22T09:55:23;45.50;;;22.80;;
4756;SDS011;2392;52.578;13.426;2022-11-22T09:57:59;39.33;;;21.67;;
4756;SDS011;2392;52.578;13.426;2022-11-22T10:00:31;40.30;;;21.70;;
4756;SDS011;2392;52.578;13.426;2022-11-22T10:03:08;41.57;;;21.70;;
4756;SDS011;2392;52.578;13.426;2022-11-22T10:05:45;41.47;;;22.50;;
4756;SDS011;2392;52.578;13.426;2022-11-22T10:08:17;35.73;;;20.17;;
4756;SDS011;2392;52.578;13.426;2022-11-22T10:10:52;41.73;;;20.93;;
4756;SDS011;2392;52.578;13.426;2022-11-22T10:13:24;36.60;;;20.43;;
4756;SDS011;2392;52.578;13.426;2022-11-22T10:15:59;38.30;;;19.70;;
4756;SDS011;2392;52.578;13.426;2022-11-22T10:18:33;34.87;;;20.43;;
4756;SDS011;2392;52.578;13.426;2022-11-22T10:21:07;37.80;;;20.93;;
4756;SDS011;2392;52.578;13.426;2022-11-22T10:23:36;33.53;;;19.07;;
4756;SDS011;2392;52.578;13.426;2022-11-22T10:26:10;35.83;;;20.80;;
4756;SDS011;2392;52.578;13.426;2022-11-22T10:28:50;37.27;;;20.70;;
4756;SDS011;2392;52.578;13.426;2022-11-22T10:31:25;33.90;;;19.97;;
4756;SDS011;2392;52.578;13.426;2022-11-22T10:33:58;44.67;;;22.07;;
4756;SDS011;2392;52.578;13.426;2022-11-22T10:36:33;40.77;;;19.73;;
4756;SDS011;2392;52.578;13.426;2022-11-22T10:41:55;35.97;;;20.10;;
4756;SDS011;2392;52.578;13.426;2022-11-22T10:44:42;38.13;;;20.60;;
4756;SDS011;2392;52.578;13.426;2022-11-22T10:47:20;36.90;;;20.13;;
4756;SDS011;2392;52.578;13.426;2022-11-22T10:49:59;34.93;;;20.27;;
4756;SDS011;2392;52.578;13.426;2022-11-22T10:52:32;40.37;;;22.17;;
4756;SDS011;2392;52.578;13.426;2022-11-22T10:55:13;41.03;;;20.87;;
4756;SDS011;2392;52.578;13.426;2022-11-22T10:57:48;42.87;;;21.60;;
4756;SDS011;2392;52.578;13.426;2022-11-22T11:00:25;39.77;;;21.07;;
4756;SDS011;2392;52.578;13.426;2022-11-22T11:03:06;41.40;;;21.43;;
4756;SDS011;2392;52.578;13.426;2022-11-22T11:05:42;39.33;;;22.17;;
4756;SDS011;2392;52.578;13.426;2022-11-22T11:08:13;41.97;;;21.10;;
4756;SDS011;2392;52.578;13.426;2022-11-22T11:10:42;38.83;;;21.37;;
4756;SDS011;2392;52.578;13.426;2022-11-22T11:13:16;40.57;;;21.03;;
4756;SDS011;2392;52.578;13.426;2022-11-22T11:15:50;40.47;;;21.80;;
4756;SDS011;2392;52.578;13.426;2022-11-22T11:18:20;43.07;;;21.43;;
4756;SDS011;2392;52.578;13.426;2022-11-22T11:20:51;49.20;;;21.40;;
4756;SDS011;2392;52.578;13.426;2022-11-22T11:23:18;40.43;;;21.17;;
4756;SDS011;2392;52.578;13.426;2022-11-22T11:25:45;37.50;;;20.33;;
4756;SDS011;2392;52.578;13.426;2022-11-22T11:28:16;40.47;;;21.40;;
4756;SDS011;2392;52.578;13.426;2022-11-22T11:39:48;46.63;;;23.73;;
4756;SDS011;2392;52.578;13.426;2022-11-22T11:42:25;47.63;;;22.83;;
4756;SDS011;2392;52.578;13.426;2022-11-22T11:44:54;40.83;;;21.20;;
4756;SDS011;2392;52.578;13.426;2022-11-22T11:47:45;36.50;;;19.67;;
4756;SDS011;2392;52.578;13.426;2022-11-22T11:50:15;36.57;;;20.90;;
4756;SDS011;2392;52.578;13.426;2022-11-22T11:52:48;38.97;;;21.00;;
4756;SDS011;2392;52.578;13.426;2022-11-22T11:55:18;42.83;;;21.07;;
4756;SDS011;2392;52.578;13.426;2022-11-22T11:57:45;50.83;;;23.50;;
4756;SDS011;2392;52.578;13.426;2022-11-22T12:00:18;41.73;;;22.50;;
4756;SDS011;2392;52.578;13.426;2022-11-22T12:02:50;44.73;;;22.93;;
4756;SDS011;2392;52.578;13.426;2022-11-22T12:05:26;49.07;;;22.80;;
4756;SDS011;2392;52.578;13.426;2022-11-22T12:07:56;41.70;;;21.00;;
4756;SDS011;2392;52.578;13.426;2022-11-22T12:10:32;50.23;;;23.83;;
4756;SDS011;2392;52.578;13.426;2022-11-22T12:13:27;47.20;;;22.93;;
4756;SDS011;2392;52.578;13.426;2022-11-22T12:16:00;43.50;;;22.90;;
4756;SDS011;2392;52.578;13.426;2022-11-22T12:18:37;34.50;;;20.50;;
4756;SDS011;2392;52.578;13.426;2022-11-22T12:21:14;39.53;;;23.43;;
4756;SDS011;2392;52.578;13.426;2022-11-22T12:23:49;41.07;;;21.80;;
4756;SDS011;2392;52.578;13.426;2022-11-22T12:26:22;39.33;;;22.23;;
4756;SDS011;2392;52.578;13.426;2022-11-22T12:28:51;39.97;;;21.23;;
4756;SDS011;2392;52.578;13.426;2022-11-22T12:31:22;39.30;;;22.30;;
4756;SDS011;2392;52.578;13.426;2022-11-22T12:33:55;37.20;;;20.83;;
4756;SDS011;2392;52.578;13.426;2022-11-22T12:36:26;37.50;;;21.13;;
4756;SDS011;2392;52.578;13.426;2022-11-22T12:38:57;42.00;;;22.13;;
4756;SDS011;2392;52.578;13.426;2022-11-22T12:41:30;41.23;;;22.20;;
4756;SDS011;2392;52.578;13.426;2022-11-22T12:43:59;39.10;;;21.40;;
4756;SDS011;2392;52.578;13.426;2022-11-22T12:46:28;35.80;;;20.23;;
4756;SDS011;2392;52.578;13.426;2022-11-22T12:49:01;37.33;;;21.17;;
4756;SDS011;2392;52.578;13.426;2022-11-22T12:51:38;38.60;;;21.30;;
4756;SDS011;2392;52.578;13.426;2022-11-22T12:54:09;35.83;;;21.20;;
4756;SDS011;2392;52.578;13.426;2022-11-22T12:56:44;39.73;;;19.90;;
4756;SDS011;2392;52.578;13.426;2022-11-22T12:59:16;39.93;;;20.80;;
4756;SDS011;2392;52.578;13.426;2022-11-22T13:01:55;37.63;;;20.67;;
4756;SDS011;2392;52.578;13.426;2022-11-22T13:04:29;33.73;;;20.80;;
4756;SDS011;2392;52.578;13.426;2022-11-22T13:07:04;41.83;;;23.00;;
4756;SDS011;2392;52.578;13.426;2022-11-22T13:09:41;38.67;;;20.70;;
4756;SDS011;2392;52.578;13.426;2022-11-22T13:12:16;39.87;;;21.33;;
4756;SDS011;2392;52.578;13.426;2022-11-22T13:14:50;36.87;;;19.90;;
4756;SDS011;2392;52.578;13.426;2022-11-22T13:17:19;37.40;;;20.10;;
4756;SDS011;2392;52.578;13.426;2022-11-22T13:19:49;40.93;;;21.60;;
4756;SDS011;2392;52.578;13.426;2022-11-22T13:22:21;38.90;;;21.20;;
4756;SDS011;2392;52.578;13.426;2022-11-22T13:25:03;36.63;;;21.07;;
4756;SDS011;2392;52.578;13.426;2022-11-22T13:27:45;37.20;;;20.27;;
4756;SDS011;2392;52.578;13.426;2022-11-22T13:30:16;36.43;;;20.83;;
4756;SDS011;2392;52.578;13.426;2022-11-22T13:32:46;34.10;;;20.90;;
4756;SDS011;2392;52.578;13.426;2022-11-22T13:35:19;37.70;;;21.00;;
4756;SDS011;2392;52.578;13.426;2022-11-22T13:37:52;38.67;;;21.57;;
4756;SDS011;2392;52.578;13.426;2022-11-22T13:40:22;36.43;;;21.03;;
4756;SDS011;2392;52.578;13.426;2022-11-22T13:49:36;36.23;;;19.10;;
4756;SDS011;2392;52.578;13.426;2022-11-22T13:55:25;43.10;;;22.80;;
4756;SDS011;2392;52.578;13.426;2022-11-22T14:04:26;37.97;;;21.77;;
4756;SDS011;2392;52.578;13.426;2022-11-22T14:06:58;36.63;;;19.23;;
4756;SDS011;2392;52.578;13.426;2022-11-22T14:09:33;40.63;;;19.80;;
4756;SDS011;2392;52.578;13.426;2022-11-22T14:12:21;39.07;;;20.27;;
4756;SDS011;2392;52.578;13.426;2022-11-22T14:15:10;37.90;;;19.87;;
4756;SDS011;2392;52.578;13.426;2022-11-22T14:17:50;43.10;;;20.30;;
4756;SDS011;2392;52.578;13.426;2022-11-22T14:20:32;48.00;;;21.83;;
4756;SDS011;2392;52.578;13.426;2022-11-22T14:23:08;39.90;;;21.80;;
4756;SDS011;2392;52.578;13.426;2022-11-22T14:25:47;32.50;;;19.03;;
4756;SDS011;2392;52.578;13.426;2022-11-22T14:31:23;39.13;;;20.80;;
4756;SDS011;2392;52.578;13.426;2022-11-22T14:34:16;42.23;;;20.40;;
4756;SDS011;2392;52.578;13.426;2022-11-22T14:39:58;42.27;;;19.93;;
4756;SDS011;2392;52.578;13.426;2022-11-22T14:42:46;41.93;;;23.40;;
4756;SDS011;2392;52.578;13.426;2022-11-22T14:45:20;36.60;;;20.80;;
4756;SDS011;2392;52.578;13.426;2022-11-22T14:47:53;41.77;;;21.97;;
4756;SDS011;2392;52.578;13.426;2022-11-22T14:50:27;32.93;;;21.00;;
4756;SDS011;2392;52.578;13.426;2022-11-22T14:52:58;35.27;;;20.17;;
4756;SDS011;2392;52.578;13.426;2022-11-22T14:55:32;36.93;;;19.53;;
4756;SDS011;2392;52.578;13.426;2022-11-22T14:58:00;36.47;;;21.03;;
4756;SDS011;2392;52.578;13.426;2022-11-22T15:00:35;42.10;;;21.67;;
4756;SDS011;2392;52.578;13.426;2022-11-22T15:03:23;40.23;;;20.47;;
4756;SDS011;2392;52.578;13.426;2022-11-22T15:06:13;42.93;;;21.10;;
4756;SDS011;2392;52.578;13.426;2022-11-22T15:08:54;46.33;;;20.03;;
4756;SDS011;2392;52.578;13.426;2022-11-22T15:11:47;39.17;;;20.60;;
4756;SDS011;2392;52.578;13.426;2022-11-22T15:17:31;40.40;;;20.93;;
4756;SDS011;2392;52.578;13.426;2022-11-22T15:20:01;36.37;;;20.90;;
4756;SDS011;2392;52.578;13.426;2022-11-22T15:22:30;37.70;;;20.10;;
4756;SDS011;2392;52.578;13.426;2022-11-22T15:24:57;38.30;;;22.23;;
4756;SDS011;2392;52.578;13.426;2022-11-22T15:27:28;39.93;;;20.33;;
4756;SDS011;2392;52.578;13.426;2022-11-22T15:30:12;41.60;;;20.00;;
4756;SDS011;2392;52.578;13.426;2022-11-22T15:32:40;37.20;;;22.13;;
4756;SDS011;2392;52.578;13.426;2022-11-22T15:35:12;40.87;;;23.23;;